sensor_id;sensor_type;location;lat;lon;timestamp;temperature;humidity
33023;DHT22;19390;51.460;5.710;2023-04-30T00:02:08;6.90;99.90
33023;DHT22;19390;51.460;5.710;2023-04-30T00:04:33;6.70;99.90
33023;DHT22;19390;51.460;5.710;2023-04-30T00:06:59;6.80;99.90
33023;DHT22;19390;51.460;5.710;2023-04-30T00:09:25;6.90;99.90
33023;DHT22;19390;51.460;5.710;2023-04-30T00:11:51;6.90;99.90
33023;DHT22;19390;51.460;5.710;2023-04-30T00:14:16;6.90;99.90
33023;DHT22;19390;51.460;5.710;2023-04-30T00:16:42;6.80;99.90
33023;DHT22;19390;51.460;5.710;2023-04-30T00:19:07;6.80;99.90
33023;DHT22;19390;51.460;5.710;2023-04-30T00:21:33;6.90;99.90
33023;DHT22;19390;51.460;5.710;2023-04-30T00:23:59;6.90;99.90
33023;DHT22;19390;51.460;5.710;2023-04-30T00:26:27;6.90;99.90
33023;DHT22;19390;51.460;5.710;2023-04-30T00:28:53;7.00;99.90
33023;DHT22;19390;51.460;5.710;2023-04-30T00:31:18;7.00;99.90
33023;DHT22;19390;51.460;5.710;2023-04-30T00:33:44;7.10;99.90
33023;DHT22;19390;51.460;5.710;2023-04-30T00:36:09;7.20;99.90
33023;DHT22;19390;51.460;5.710;2023-04-30T00:38:35;7.10;99.90
33023;DHT22;19390;51.460;5.710;2023-04-30T00:41:00;7.30;99.90
33023;DHT22;19390;51.460;5.710;2023-04-30T00:43:26;7.10;99.90
33023;DHT22;19390;51.460;5.710;2023-04-30T00:45:52;7.00;99.90
33023;DHT22;19390;51.460;5.710;2023-04-30T00:48:17;6.90;99.90
33023;DHT22;19390;51.460;5.710;2023-04-30T00:50:43;7.00;99.90
33023;DHT22;19390;51.460;5.710;2023-04-30T00:53:10;7.00;99.90
33023;DHT22;19390;51.460;5.710;2023-04-30T00:55:36;7.10;99.90
33023;DHT22;19390;51.460;5.710;2023-04-30T00:58:01;7.00;99.90
33023;DHT22;19390;51.460;5.710;2023-04-30T01:00:27;7.10;99.90
33023;DHT22;19390;51.460;5.710;2023-04-30T01:02:54;7.10;99.90
33023;DHT22;19390;51.460;5.710;2023-04-30T01:05:21;7.10;99.90
33023;DHT22;19390;51.460;5.710;2023-04-30T01:07:47;7.10;99.90
33023;DHT22;19390;51.460;5.710;2023-04-30T01:10:14;7.00;99.90
33023;DHT22;19390;51.460;5.710;2023-04-30T01:13:01;7.00;99.90
33023;DHT22;19390;51.460;5.710;2023-04-30T01:18:15;7.10;99.90
33023;DHT22;19390;51.460;5.710;2023-04-30T01:20:54;6.90;99.90
33023;DHT22;19390;51.460;5.710;2023-04-30T01:27:10;6.90;99.90
33023;DHT22;19390;51.460;5.710;2023-04-30T01:29:38;6.70;99.90
33023;DHT22;19390;51.460;5.710;2023-04-30T01:32:06;6.60;99.90
33023;DHT22;19390;51.460;5.710;2023-04-30T01:34:31;6.70;99.90
33023;DHT22;19390;51.460;5.710;2023-04-30T01:39:47;6.80;99.90
33023;DHT22;19390;51.460;5.710;2023-04-30T01:43:11;6.80;99.90
33023;DHT22;19390;51.460;5.710;2023-04-30T01:48:21;6.80;99.90
33023;DHT22;19390;51.460;5.710;2023-04-30T01:50:52;6.80;99.90
33023;DHT22;19390;51.460;5.710;2023-04-30T01:53:22;6.80;99.90
33023;DHT22;19390;51.460;5.710;2023-04-30T01:56:03;6.90;99.90
33023;DHT22;19390;51.460;5.710;2023-04-30T01:58:29;6.90;99.90
33023;DHT22;19390;51.460;5.710;2023-04-30T02:00:56;6.90;99.90
33023;DHT22;19390;51.460;5.710;2023-04-30T02:03:22;7.00;99.90
33023;DHT22;19390;51.460;5.710;2023-04-30T02:05:48;7.00;99.90
33023;DHT22;19390;51.460;5.710;2023-04-30T02:08:14;7.10;99.90
33023;DHT22;19390;51.460;5.710;2023-04-30T02:10:39;7.10;99.90
33023;DHT22;19390;51.460;5.710;2023-04-30T02:13:05;7.10;99.90
33023;DHT22;19390;51.460;5.710;2023-04-30T02:15:31;7.20;99.90
33023;DHT22;19390;51.460;5.710;2023-04-30T02:17:56;7.00;99.90
33023;DHT22;19390;51.460;5.710;2023-04-30T02:20:22;7.00;99.90
33023;DHT22;19390;51.460;5.710;2023-04-30T02:22:48;6.90;99.90
33023;DHT22;19390;51.460;5.710;2023-04-30T02:25:13;6.90;99.90
33023;DHT22;19390;51.460;5.710;2023-04-30T02:27:39;7.00;99.90
33023;DHT22;19390;51.460;5.710;2023-04-30T02:30:05;6.80;99.90
33023;DHT22;19390;51.460;5.710;2023-04-30T02:32:31;6.80;99.90
33023;DHT22;19390;51.460;5.710;2023-04-30T02:34:57;6.80;99.90
33023;DHT22;19390;51.460;5.710;2023-04-30T02:37:22;6.80;99.90
33023;DHT22;19390;51.460;5.710;2023-04-30T02:39:48;7.00;99.90
33023;DHT22;19390;51.460;5.710;2023-04-30T02:42:14;7.00;99.90
33023;DHT22;19390;51.460;5.710;2023-04-30T02:44:39;6.80;99.90
33023;DHT22;19390;51.460;5.710;2023-04-30T02:47:05;6.70;99.90
33023;DHT22;19390;51.460;5.710;2023-04-30T02:49:31;6.90;99.90
33023;DHT22;19390;51.460;5.710;2023-04-30T02:51:56;6.90;99.90
33023;DHT22;19390;51.460;5.710;2023-04-30T02:54:22;6.80;99.90
33023;DHT22;19390;51.460;5.710;2023-04-30T02:56:47;6.90;99.90
33023;DHT22;19390;51.460;5.710;2023-04-30T02:59:13;6.90;99.90
33023;DHT22;19390;51.460;5.710;2023-04-30T03:01:39;6.80;99.90
33023;DHT22;19390;51.460;5.710;2023-04-30T03:04:04;6.80;99.90
33023;DHT22;19390;51.460;5.710;2023-04-30T03:06:31;6.90;99.90
33023;DHT22;19390;51.460;5.710;2023-04-30T03:08:57;6.90;99.90
33023;DHT22;19390;51.460;5.710;2023-04-30T03:11:23;6.90;99.90
33023;DHT22;19390;51.460;5.710;2023-04-30T03:13:48;7.00;99.90
33023;DHT22;19390;51.460;5.710;2023-04-30T03:16:16;6.80;99.90
33023;DHT22;19390;51.460;5.710;2023-04-30T03:18:43;6.80;99.90
33023;DHT22;19390;51.460;5.710;2023-04-30T03:21:08;6.70;99.90
33023;DHT22;19390;51.460;5.710;2023-04-30T03:23:34;6.70;99.90
33023;DHT22;19390;51.460;5.710;2023-04-30T03:26:00;6.60;99.90
33023;DHT22;19390;51.460;5.710;2023-04-30T03:28:25;6.60;99.90
33023;DHT22;19390;51.460;5.710;2023-04-30T03:30:51;6.60;99.90
33023;DHT22;19390;51.460;5.710;2023-04-30T03:33:17;6.60;99.90
33023;DHT22;19390;51.460;5.710;2023-04-30T03:35:42;6.50;99.90
33023;DHT22;19390;51.460;5.710;2023-04-30T03:38:08;6.50;99.90
33023;DHT22;19390;51.460;5.710;2023-04-30T03:40:33;6.50;99.90
33023;DHT22;19390;51.460;5.710;2023-04-30T03:42:59;6.50;99.90
33023;DHT22;19390;51.460;5.710;2023-04-30T03:45:25;6.40;99.90
33023;DHT22;19390;51.460;5.710;2023-04-30T03:47:51;6.40;99.90
33023;DHT22;19390;51.460;5.710;2023-04-30T03:50:17;6.30;99.90
33023;DHT22;19390;51.460;5.710;2023-04-30T03:52:43;6.20;99.90
33023;DHT22;19390;51.460;5.710;2023-04-30T03:55:09;6.20;99.90
33023;DHT22;19390;51.460;5.710;2023-04-30T03:57:35;6.20;99.90
33023;DHT22;19390;51.460;5.710;2023-04-30T04:00:01;6.20;99.90
33023;DHT22;19390;51.460;5.710;2023-04-30T04:02:30;6.30;99.90
33023;DHT22;19390;51.460;5.710;2023-04-30T04:04:56;6.50;99.90
33023;DHT22;19390;51.460;5.710;2023-04-30T04:07:21;6.70;99.90
33023;DHT22;19390;51.460;5.710;2023-04-30T04:09:47;6.70;99.90
33023;DHT22;19390;51.460;5.710;2023-04-30T04:12:13;6.80;99.90
33023;DHT22;19390;51.460;5.710;2023-04-30T04:14:38;6.70;99.90
33023;DHT22;19390;51.460;5.710;2023-04-30T04:17:04;6.70;99.90
33023;DHT22;19390;51.460;5.710;2023-04-30T04:19:30;6.80;99.90
33023;DHT22;19390;51.460;5.710;2023-04-30T04:21:55;6.90;99.90
33023;DHT22;19390;51.460;5.710;2023-04-30T04:24:26;6.80;99.90
33023;DHT22;19390;51.460;5.710;2023-04-30T04:26:51;6.80;99.90
33023;DHT22;19390;51.460;5.710;2023-04-30T04:29:18;6.90;99.90
33023;DHT22;19390;51.460;5.710;2023-04-30T04:31:44;6.90;99.90
33023;DHT22;19390;51.460;5.710;2023-04-30T04:34:09;6.90;99.90
33023;DHT22;19390;51.460;5.710;2023-04-30T04:36:35;7.00;99.90
33023;DHT22;19390;51.460;5.710;2023-04-30T04:39:00;6.90;99.90
33023;DHT22;19390;51.460;5.710;2023-04-30T04:41:33;6.90;99.90
33023;DHT22;19390;51.460;5.710;2023-04-30T04:44:00;7.10;99.90
33023;DHT22;19390;51.460;5.710;2023-04-30T04:46:30;7.10;99.90
33023;DHT22;19390;51.460;5.710;2023-04-30T04:48:56;7.10;99.90
33023;DHT22;19390;51.460;5.710;2023-04-30T04:51:22;7.20;99.90
33023;DHT22;19390;51.460;5.710;2023-04-30T04:53:47;7.20;99.90
33023;DHT22;19390;51.460;5.710;2023-04-30T04:56:13;7.30;99.90
33023;DHT22;19390;51.460;5.710;2023-04-30T04:58:40;7.30;99.90
33023;DHT22;19390;51.460;5.710;2023-04-30T05:01:05;7.40;99.90
33023;DHT22;19390;51.460;5.710;2023-04-30T05:03:32;7.60;99.90
33023;DHT22;19390;51.460;5.710;2023-04-30T05:05:58;7.90;99.90
33023;DHT22;19390;51.460;5.710;2023-04-30T05:08:24;7.90;99.90
33023;DHT22;19390;51.460;5.710;2023-04-30T05:10:49;8.20;99.90
33023;DHT22;19390;51.460;5.710;2023-04-30T05:13:15;8.30;99.90
33023;DHT22;19390;51.460;5.710;2023-04-30T05:15:41;8.20;99.90
33023;DHT22;19390;51.460;5.710;2023-04-30T05:18:06;8.40;99.90
33023;DHT22;19390;51.460;5.710;2023-04-30T05:20:32;8.80;99.90
33023;DHT22;19390;51.460;5.710;2023-04-30T05:22:57;10.10;99.90
33023;DHT22;19390;51.460;5.710;2023-04-30T05:25:23;12.20;99.90
33023;DHT22;19390;51.460;5.710;2023-04-30T05:27:49;13.10;99.90
33023;DHT22;19390;51.460;5.710;2023-04-30T05:30:14;13.70;99.90
33023;DHT22;19390;51.460;5.710;2023-04-30T05:32:40;14.00;99.90
33023;DHT22;19390;51.460;5.710;2023-04-30T05:35:07;14.40;99.90
33023;DHT22;19390;51.460;5.710;2023-04-30T05:37:32;13.30;99.90
33023;DHT22;19390;51.460;5.710;2023-04-30T05:39:58;13.30;99.90
33023;DHT22;19390;51.460;5.710;2023-04-30T05:42:23;13.50;99.90
33023;DHT22;19390;51.460;5.710;2023-04-30T05:44:49;14.60;99.90
33023;DHT22;19390;51.460;5.710;2023-04-30T05:47:15;13.90;99.90
33023;DHT22;19390;51.460;5.710;2023-04-30T05:49:40;13.20;99.90
33023;DHT22;19390;51.460;5.710;2023-04-30T05:52:06;13.10;99.90
33023;DHT22;19390;51.460;5.710;2023-04-30T05:54:32;14.80;99.90
33023;DHT22;19390;51.460;5.710;2023-04-30T05:56:57;14.80;99.90
33023;DHT22;19390;51.460;5.710;2023-04-30T05:59:23;14.60;99.90
33023;DHT22;19390;51.460;5.710;2023-04-30T06:01:49;15.90;99.90
33023;DHT22;19390;51.460;5.710;2023-04-30T06:04:15;14.80;99.90
33023;DHT22;19390;51.460;5.710;2023-04-30T06:06:41;15.10;99.90
33023;DHT22;19390;51.460;5.710;2023-04-30T06:09:06;16.60;99.90
33023;DHT22;19390;51.460;5.710;2023-04-30T06:11:32;16.40;99.90
33023;DHT22;19390;51.460;5.710;2023-04-30T06:13:58;15.40;99.90
33023;DHT22;19390;51.460;5.710;2023-04-30T06:16:23;15.10;99.90
33023;DHT22;19390;51.460;5.710;2023-04-30T06:18:49;15.80;99.90
33023;DHT22;19390;51.460;5.710;2023-04-30T06:21:14;15.80;99.90
33023;DHT22;19390;51.460;5.710;2023-04-30T06:23:40;16.70;99.90
33023;DHT22;19390;51.460;5.710;2023-04-30T06:26:05;16.50;99.90
33023;DHT22;19390;51.460;5.710;2023-04-30T06:28:31;16.00;99.90
33023;DHT22;19390;51.460;5.710;2023-04-30T06:30:57;16.50;99.90
33023;DHT22;19390;51.460;5.710;2023-04-30T06:33:23;15.30;99.90
33023;DHT22;19390;51.460;5.710;2023-04-30T06:35:48;16.80;99.90
33023;DHT22;19390;51.460;5.710;2023-04-30T06:38:19;16.80;99.90
33023;DHT22;19390;51.460;5.710;2023-04-30T06:40:45;17.60;99.90
33023;DHT22;19390;51.460;5.710;2023-04-30T06:43:10;18.20;99.90
33023;DHT22;19390;51.460;5.710;2023-04-30T06:45:37;17.30;99.90
33023;DHT22;19390;51.460;5.710;2023-04-30T06:48:02;17.20;99.90
33023;DHT22;19390;51.460;5.710;2023-04-30T06:50:28;18.20;99.90
33023;DHT22;19390;51.460;5.710;2023-04-30T06:52:54;19.10;99.90
33023;DHT22;19390;51.460;5.710;2023-04-30T06:55:19;18.60;99.90
33023;DHT22;19390;51.460;5.710;2023-04-30T06:57:45;18.10;99.90
33023;DHT22;19390;51.460;5.710;2023-04-30T07:00:11;18.50;99.90
33023;DHT22;19390;51.460;5.710;2023-04-30T07:02:37;17.70;99.90
33023;DHT22;19390;51.460;5.710;2023-04-30T07:05:03;18.60;99.90
33023;DHT22;19390;51.460;5.710;2023-04-30T07:07:28;19.80;99.90
33023;DHT22;19390;51.460;5.710;2023-04-30T07:09:54;21.90;99.90
33023;DHT22;19390;51.460;5.710;2023-04-30T07:12:20;20.70;99.90
33023;DHT22;19390;51.460;5.710;2023-04-30T07:14:46;18.00;99.90
33023;DHT22;19390;51.460;5.710;2023-04-30T07:17:12;17.80;99.90
33023;DHT22;19390;51.460;5.710;2023-04-30T07:19:37;15.90;99.90
33023;DHT22;19390;51.460;5.710;2023-04-30T07:22:03;16.50;99.90
33023;DHT22;19390;51.460;5.710;2023-04-30T07:24:29;18.40;99.90
33023;DHT22;19390;51.460;5.710;2023-04-30T07:26:54;21.00;99.90
33023;DHT22;19390;51.460;5.710;2023-04-30T07:29:20;18.80;99.90
33023;DHT22;19390;51.460;5.710;2023-04-30T07:31:45;20.60;99.90
33023;DHT22;19390;51.460;5.710;2023-04-30T07:34:11;20.90;99.90
33023;DHT22;19390;51.460;5.710;2023-04-30T07:36:37;18.50;99.90
33023;DHT22;19390;51.460;5.710;2023-04-30T07:39:03;18.10;99.90
33023;DHT22;19390;51.460;5.710;2023-04-30T07:41:30;18.10;99.90
33023;DHT22;19390;51.460;5.710;2023-04-30T07:43:55;21.40;99.90
33023;DHT22;19390;51.460;5.710;2023-04-30T07:46:22;21.50;99.90
33023;DHT22;19390;51.460;5.710;2023-04-30T07:48:49;23.20;99.90
33023;DHT22;19390;51.460;5.710;2023-04-30T07:51:14;22.60;99.90
33023;DHT22;19390;51.460;5.710;2023-04-30T07:53:40;19.60;99.90
33023;DHT22;19390;51.460;5.710;2023-04-30T07:56:06;18.80;99.90
33023;DHT22;19390;51.460;5.710;2023-04-30T07:58:32;22.50;99.90
33023;DHT22;19390;51.460;5.710;2023-04-30T08:00:58;21.80;99.90
33023;DHT22;19390;51.460;5.710;2023-04-30T08:03:23;23.80;99.90
33023;DHT22;19390;51.460;5.710;2023-04-30T08:05:49;24.80;99.90
33023;DHT22;19390;51.460;5.710;2023-04-30T08:08:15;23.90;99.90
33023;DHT22;19390;51.460;5.710;2023-04-30T08:10:40;23.40;99.90
33023;DHT22;19390;51.460;5.710;2023-04-30T08:13:06;22.20;99.90
33023;DHT22;19390;51.460;5.710;2023-04-30T08:15:35;24.30;99.90
33023;DHT22;19390;51.460;5.710;2023-04-30T08:18:02;20.80;99.90
33023;DHT22;19390;51.460;5.710;2023-04-30T08:20:28;22.30;99.90
33023;DHT22;19390;51.460;5.710;2023-04-30T08:22:53;24.40;99.90
33023;DHT22;19390;51.460;5.710;2023-04-30T08:25:19;24.50;99.90
33023;DHT22;19390;51.460;5.710;2023-04-30T08:27:45;21.70;99.90
33023;DHT22;19390;51.460;5.710;2023-04-30T08:30:11;20.70;99.90
33023;DHT22;19390;51.460;5.710;2023-04-30T08:32:36;19.50;99.90
33023;DHT22;19390;51.460;5.710;2023-04-30T08:35:03;20.30;99.90
33023;DHT22;19390;51.460;5.710;2023-04-30T08:37:29;23.30;99.90
33023;DHT22;19390;51.460;5.710;2023-04-30T08:39:55;26.20;99.90
33023;DHT22;19390;51.460;5.710;2023-04-30T08:42:24;23.90;99.90
33023;DHT22;19390;51.460;5.710;2023-04-30T08:44:50;22.00;99.90
33023;DHT22;19390;51.460;5.710;2023-04-30T08:47:16;20.10;99.90
33023;DHT22;19390;51.460;5.710;2023-04-30T08:49:42;22.10;99.90
33023;DHT22;19390;51.460;5.710;2023-04-30T08:52:09;21.60;99.90
33023;DHT22;19390;51.460;5.710;2023-04-30T08:54:35;21.80;99.90
33023;DHT22;19390;51.460;5.710;2023-04-30T08:57:01;21.50;99.90
33023;DHT22;19390;51.460;5.710;2023-04-30T08:59:28;21.90;99.90
33023;DHT22;19390;51.460;5.710;2023-04-30T09:01:54;24.40;99.90
33023;DHT22;19390;51.460;5.710;2023-04-30T09:04:20;25.30;99.90
33023;DHT22;19390;51.460;5.710;2023-04-30T09:06:46;24.10;99.90
33023;DHT22;19390;51.460;5.710;2023-04-30T09:09:13;22.50;99.90
33023;DHT22;19390;51.460;5.710;2023-04-30T09:11:40;24.60;99.90
33023;DHT22;19390;51.460;5.710;2023-04-30T09:14:06;25.00;99.90
33023;DHT22;19390;51.460;5.710;2023-04-30T09:16:47;22.50;99.90
33023;DHT22;19390;51.460;5.710;2023-04-30T09:21:49;21.50;99.90
33023;DHT22;19390;51.460;5.710;2023-04-30T09:24:14;25.60;99.90
33023;DHT22;19390;51.460;5.710;2023-04-30T09:26:40;25.50;99.90
33023;DHT22;19390;51.460;5.710;2023-04-30T09:29:05;26.10;99.90
33023;DHT22;19390;51.460;5.710;2023-04-30T09:31:38;25.60;99.90
33023;DHT22;19390;51.460;5.710;2023-04-30T09:34:05;25.70;99.90
33023;DHT22;19390;51.460;5.710;2023-04-30T09:36:31;26.20;99.90
33023;DHT22;19390;51.460;5.710;2023-04-30T09:39:10;25.30;99.90
33023;DHT22;19390;51.460;5.710;2023-04-30T09:41:41;26.10;99.90
33023;DHT22;19390;51.460;5.710;2023-04-30T09:44:07;24.20;99.90
33023;DHT22;19390;51.460;5.710;2023-04-30T09:46:34;24.40;99.90
33023;DHT22;19390;51.460;5.710;2023-04-30T09:49:03;24.60;99.90
33023;DHT22;19390;51.460;5.710;2023-04-30T09:51:31;25.90;99.90
33023;DHT22;19390;51.460;5.710;2023-04-30T09:53:57;26.60;99.90
33023;DHT22;19390;51.460;5.710;2023-04-30T09:56:24;26.00;99.90
33023;DHT22;19390;51.460;5.710;2023-04-30T09:58:54;26.10;99.90
33023;DHT22;19390;51.460;5.710;2023-04-30T10:01:22;22.70;99.90
33023;DHT22;19390;51.460;5.710;2023-04-30T10:03:50;21.30;99.90
33023;DHT22;19390;51.460;5.710;2023-04-30T10:06:17;25.80;99.90
33023;DHT22;19390;51.460;5.710;2023-04-30T10:08:52;25.30;99.90
33023;DHT22;19390;51.460;5.710;2023-04-30T10:11:20;25.90;99.90
33023;DHT22;19390;51.460;5.710;2023-04-30T10:13:54;26.40;99.90
33023;DHT22;19390;51.460;5.710;2023-04-30T10:19:03;19.40;99.90
33023;DHT22;19390;51.460;5.710;2023-04-30T10:21:31;21.90;99.90
33023;DHT22;19390;51.460;5.710;2023-04-30T10:23:58;24.70;99.90
33023;DHT22;19390;51.460;5.710;2023-04-30T10:26:24;23.90;99.90
33023;DHT22;19390;51.460;5.710;2023-04-30T10:28:51;25.30;99.90
33023;DHT22;19390;51.460;5.710;2023-04-30T10:31:18;26.60;99.90
33023;DHT22;19390;51.460;5.710;2023-04-30T10:34:11;26.70;99.90
33023;DHT22;19390;51.460;5.710;2023-04-30T10:36:45;26.90;99.90
33023;DHT22;19390;51.460;5.710;2023-04-30T10:39:22;28.10;99.90
33023;DHT22;19390;51.460;5.710;2023-04-30T10:41:48;27.20;99.90
33023;DHT22;19390;51.460;5.710;2023-04-30T10:44:14;24.60;99.90
33023;DHT22;19390;51.460;5.710;2023-04-30T10:46:41;20.80;99.90
33023;DHT22;19390;51.460;5.710;2023-04-30T10:49:07;21.20;99.90
33023;DHT22;19390;51.460;5.710;2023-04-30T10:51:46;21.90;99.90
33023;DHT22;19390;51.460;5.710;2023-04-30T10:54:14;19.00;99.90
33023;DHT22;19390;51.460;5.710;2023-04-30T10:56:44;22.10;99.90
33023;DHT22;19390;51.460;5.710;2023-04-30T10:59:10;21.50;99.90
33023;DHT22;19390;51.460;5.710;2023-04-30T11:01:56;23.90;99.90
33023;DHT22;19390;51.460;5.710;2023-04-30T11:04:22;20.50;99.90
33023;DHT22;19390;51.460;5.710;2023-04-30T11:09:43;20.20;99.90
33023;DHT22;19390;51.460;5.710;2023-04-30T11:12:19;21.50;99.90
33023;DHT22;19390;51.460;5.710;2023-04-30T11:15:00;22.70;99.90
33023;DHT22;19390;51.460;5.710;2023-04-30T11:17:26;25.00;99.90
33023;DHT22;19390;51.460;5.710;2023-04-30T11:19:53;22.50;99.90
33023;DHT22;19390;51.460;5.710;2023-04-30T11:22:23;23.40;99.90
33023;DHT22;19390;51.460;5.710;2023-04-30T11:24:59;22.50;99.90
33023;DHT22;19390;51.460;5.710;2023-04-30T11:27:32;22.30;99.90
33023;DHT22;19390;51.460;5.710;2023-04-30T11:29:59;23.00;99.90
33023;DHT22;19390;51.460;5.710;2023-04-30T11:32:33;24.90;99.90
33023;DHT22;19390;51.460;5.710;2023-04-30T11:35:00;21.60;99.90
33023;DHT22;19390;51.460;5.710;2023-04-30T11:40:08;23.80;99.90
33023;DHT22;19390;51.460;5.710;2023-04-30T11:42:36;23.50;99.90
33023;DHT22;19390;51.460;5.710;2023-04-30T11:47:42;21.40;99.90
33023;DHT22;19390;51.460;5.710;2023-04-30T11:50:12;19.70;99.90
33023;DHT22;19390;51.460;5.710;2023-04-30T11:52:39;21.40;99.90
33023;DHT22;19390;51.460;5.710;2023-04-30T11:55:19;21.40;99.90
33023;DHT22;19390;51.460;5.710;2023-04-30T11:57:47;20.40;99.90
33023;DHT22;19390;51.460;5.710;2023-04-30T12:00:18;22.10;99.90
33023;DHT22;19390;51.460;5.710;2023-04-30T12:02:48;22.70;99.90
33023;DHT22;19390;51.460;5.710;2023-04-30T12:05:15;22.30;99.90
33023;DHT22;19390;51.460;5.710;2023-04-30T12:07:49;22.10;99.90
33023;DHT22;19390;51.460;5.710;2023-04-30T12:10:15;22.20;99.90
33023;DHT22;19390;51.460;5.710;2023-04-30T12:12:44;22.40;99.90
33023;DHT22;19390;51.460;5.710;2023-04-30T12:15:11;23.60;99.90
33023;DHT22;19390;51.460;5.710;2023-04-30T12:17:37;22.80;99.90
33023;DHT22;19390;51.460;5.710;2023-04-30T12:20:03;24.40;99.90
33023;DHT22;19390;51.460;5.710;2023-04-30T12:22:29;23.20;99.90
33023;DHT22;19390;51.460;5.710;2023-04-30T12:24:57;21.00;99.90
33023;DHT22;19390;51.460;5.710;2023-04-30T12:27:23;23.10;99.90
33023;DHT22;19390;51.460;5.710;2023-04-30T12:29:49;24.00;99.90
33023;DHT22;19390;51.460;5.710;2023-04-30T12:32:20;23.90;99.90
33023;DHT22;19390;51.460;5.710;2023-04-30T12:34:46;23.40;99.90
33023;DHT22;19390;51.460;5.710;2023-04-30T12:37:14;22.20;99.90
33023;DHT22;19390;51.460;5.710;2023-04-30T12:39:41;21.60;99.90
33023;DHT22;19390;51.460;5.710;2023-04-30T12:42:06;21.90;99.90
33023;DHT22;19390;51.460;5.710;2023-04-30T12:44:41;20.60;99.90
33023;DHT22;19390;51.460;5.710;2023-04-30T12:47:08;21.00;99.90
33023;DHT22;19390;51.460;5.710;2023-04-30T12:49:34;21.20;99.90
33023;DHT22;19390;51.460;5.710;2023-04-30T12:52:05;21.40;99.90
33023;DHT22;19390;51.460;5.710;2023-04-30T12:54:33;20.80;99.90
33023;DHT22;19390;51.460;5.710;2023-04-30T12:57:03;20.90;99.90
33023;DHT22;19390;51.460;5.710;2023-04-30T12:59:36;20.90;99.90
33023;DHT22;19390;51.460;5.710;2023-04-30T13:04:35;20.60;99.90
33023;DHT22;19390;51.460;5.710;2023-04-30T13:07:02;22.10;99.90
33023;DHT22;19390;51.460;5.710;2023-04-30T13:09:28;21.30;99.90
33023;DHT22;19390;51.460;5.710;2023-04-30T13:11:53;20.40;99.90
33023;DHT22;19390;51.460;5.710;2023-04-30T13:14:19;22.70;99.90
33023;DHT22;19390;51.460;5.710;2023-04-30T13:16:45;22.20;99.90
33023;DHT22;19390;51.460;5.710;2023-04-30T13:19:10;21.90;99.90
33023;DHT22;19390;51.460;5.710;2023-04-30T13:21:37;25.10;99.90
33023;DHT22;19390;51.460;5.710;2023-04-30T13:24:02;22.80;99.90
33023;DHT22;19390;51.460;5.710;2023-04-30T13:26:28;21.80;99.90
33023;DHT22;19390;51.460;5.710;2023-04-30T13:28:54;20.80;99.90
33023;DHT22;19390;51.460;5.710;2023-04-30T13:31:20;21.60;99.90
33023;DHT22;19390;51.460;5.710;2023-04-30T13:33:46;19.60;99.90
33023;DHT22;19390;51.460;5.710;2023-04-30T13:36:12;20.80;99.90
33023;DHT22;19390;51.460;5.710;2023-04-30T13:38:38;21.40;99.90
33023;DHT22;19390;51.460;5.710;2023-04-30T13:41:04;21.20;99.90
33023;DHT22;19390;51.460;5.710;2023-04-30T13:43:30;20.30;99.90
33023;DHT22;19390;51.460;5.710;2023-04-30T13:45:56;21.40;99.90
33023;DHT22;19390;51.460;5.710;2023-04-30T13:48:23;23.00;99.90
33023;DHT22;19390;51.460;5.710;2023-04-30T13:50:50;22.20;99.90
33023;DHT22;19390;51.460;5.710;2023-04-30T13:53:16;21.20;99.90
33023;DHT22;19390;51.460;5.710;2023-04-30T13:55:41;21.00;99.90
33023;DHT22;19390;51.460;5.710;2023-04-30T13:58:07;20.40;99.90
33023;DHT22;19390;51.460;5.710;2023-04-30T14:00:33;20.80;99.90
33023;DHT22;19390;51.460;5.710;2023-04-30T14:02:58;21.90;99.90
33023;DHT22;19390;51.460;5.710;2023-04-30T14:05:24;22.30;99.90
33023;DHT22;19390;51.460;5.710;2023-04-30T14:07:50;21.50;99.90
33023;DHT22;19390;51.460;5.710;2023-04-30T14:10:15;20.80;99.90
33023;DHT22;19390;51.460;5.710;2023-04-30T14:12:41;21.10;99.90
33023;DHT22;19390;51.460;5.710;2023-04-30T14:15:07;20.30;99.90
33023;DHT22;19390;51.460;5.710;2023-04-30T14:17:32;20.10;99.90
33023;DHT22;19390;51.460;5.710;2023-04-30T14:19:58;21.00;99.90
33023;DHT22;19390;51.460;5.710;2023-04-30T14:22:24;20.10;99.90
33023;DHT22;19390;51.460;5.710;2023-04-30T14:24:51;20.70;99.90
33023;DHT22;19390;51.460;5.710;2023-04-30T14:27:17;21.00;99.90
33023;DHT22;19390;51.460;5.710;2023-04-30T14:29:43;21.40;99.90
33023;DHT22;19390;51.460;5.710;2023-04-30T14:32:08;20.30;99.90
33023;DHT22;19390;51.460;5.710;2023-04-30T14:34:34;19.50;99.90
33023;DHT22;19390;51.460;5.710;2023-04-30T14:37:01;19.60;99.90
33023;DHT22;19390;51.460;5.710;2023-04-30T14:39:27;21.70;99.90
33023;DHT22;19390;51.460;5.710;2023-04-30T14:41:53;20.50;99.90
33023;DHT22;19390;51.460;5.710;2023-04-30T14:44:18;20.40;99.90
33023;DHT22;19390;51.460;5.710;2023-04-30T14:46:45;20.50;99.90
33023;DHT22;19390;51.460;5.710;2023-04-30T14:49:11;19.50;99.90
33023;DHT22;19390;51.460;5.710;2023-04-30T14:51:37;19.70;99.90
33023;DHT22;19390;51.460;5.710;2023-04-30T14:54:02;20.70;99.90
33023;DHT22;19390;51.460;5.710;2023-04-30T14:56:28;20.40;99.90
33023;DHT22;19390;51.460;5.710;2023-04-30T14:58:53;20.20;99.90
33023;DHT22;19390;51.460;5.710;2023-04-30T15:01:19;20.10;99.90
33023;DHT22;19390;51.460;5.710;2023-04-30T15:03:45;21.30;99.90
33023;DHT22;19390;51.460;5.710;2023-04-30T15:06:11;21.80;99.90
33023;DHT22;19390;51.460;5.710;2023-04-30T15:08:37;20.10;99.90
33023;DHT22;19390;51.460;5.710;2023-04-30T15:11:02;20.10;99.90
33023;DHT22;19390;51.460;5.710;2023-04-30T15:13:31;20.30;99.90
33023;DHT22;19390;51.460;5.710;2023-04-30T15:15:57;19.90;99.90
33023;DHT22;19390;51.460;5.710;2023-04-30T15:18:22;20.10;99.90
33023;DHT22;19390;51.460;5.710;2023-04-30T15:20:48;19.00;99.90
33023;DHT22;19390;51.460;5.710;2023-04-30T15:23:13;18.60;99.90
33023;DHT22;19390;51.460;5.710;2023-04-30T15:25:39;19.00;99.90
33023;DHT22;19390;51.460;5.710;2023-04-30T15:28:05;19.20;99.90
33023;DHT22;19390;51.460;5.710;2023-04-30T15:30:31;18.90;99.90
33023;DHT22;19390;51.460;5.710;2023-04-30T15:32:56;19.50;99.90
33023;DHT22;19390;51.460;5.710;2023-04-30T15:35:22;19.50;99.90
33023;DHT22;19390;51.460;5.710;2023-04-30T15:37:48;18.50;99.90
33023;DHT22;19390;51.460;5.710;2023-04-30T15:40:14;18.50;99.90
33023;DHT22;19390;51.460;5.710;2023-04-30T15:42:40;18.80;99.90
33023;DHT22;19390;51.460;5.710;2023-04-30T15:45:06;18.70;99.90
33023;DHT22;19390;51.460;5.710;2023-04-30T15:47:32;18.90;99.90
33023;DHT22;19390;51.460;5.710;2023-04-30T15:49:57;18.70;99.90
33023;DHT22;19390;51.460;5.710;2023-04-30T15:52:23;18.10;99.90
33023;DHT22;19390;51.460;5.710;2023-04-30T15:54:49;18.80;99.90
33023;DHT22;19390;51.460;5.710;2023-04-30T15:57:15;19.10;99.90
33023;DHT22;19390;51.460;5.710;2023-04-30T15:59:41;18.90;99.90
33023;DHT22;19390;51.460;5.710;2023-04-30T16:02:07;18.50;99.90